createdAt,value
2022-10-25T00:00:54.808Z,11.76
2022-10-25T00:02:55.971Z,11.72
2022-10-25T00:04:57.098Z,11.72
2022-10-25T00:06:58.121Z,11.78
2022-10-25T00:08:59.318Z,11.85
2022-10-25T00:11:01.110Z,11.8
2022-10-25T00:13:02.107Z,11.74
2022-10-25T00:15:03.881Z,11.63
2022-10-25T00:17:05.286Z,11.53
2022-10-25T00:19:06.503Z,11.55
2022-10-25T00:21:07.580Z,11.61
2022-10-25T00:23:08.898Z,11.58
2022-10-25T00:25:10.403Z,11.49
2022-10-25T00:27:11.412Z,11.54
2022-10-25T00:29:13.237Z,11.48
2022-10-25T00:31:14.067Z,11.34
2022-10-25T00:33:15.216Z,11.42
2022-10-25T00:35:16.605Z,11.54
2022-10-25T00:37:17.683Z,11.65
2022-10-25T00:39:19.138Z,11.53
2022-10-25T00:41:20.519Z,11.64
2022-10-25T00:43:22.160Z,11.69
2022-10-25T00:45:23.441Z,11.71
2022-10-25T00:47:25.156Z,11.64
2022-10-25T00:49:26.848Z,11.53
2022-10-25T00:51:28.425Z,11.46
2022-10-25T00:53:29.871Z,11.47
2022-10-25T00:55:30.981Z,11.41
2022-10-25T00:57:32.268Z,11.42
2022-10-25T00:59:33.878Z,11.54
2022-10-25T01:01:35.111Z,11.53
2022-10-25T01:03:36.804Z,11.5
2022-10-25T01:05:38.177Z,11.35
2022-10-25T01:09:41.329Z,11.32
2022-10-25T01:11:42.283Z,11.44
2022-10-25T01:13:43.942Z,11.57
2022-10-25T01:15:45.450Z,11.06
2022-10-25T01:17:46.907Z,11.08
2022-10-25T01:19:47.819Z,11.09
2022-10-25T01:21:49.048Z,10.96
2022-10-25T01:23:50.366Z,10.88
2022-10-25T01:25:51.920Z,11.15
2022-10-25T01:27:53.289Z,11.21
2022-10-25T01:29:55.016Z,11.23
2022-10-25T01:31:56.180Z,11.37
2022-10-25T01:33:57.418Z,11.4
2022-10-25T01:35:59.178Z,11.19
2022-10-25T01:38:00.386Z,10.99
2022-10-25T01:40:01.530Z,10.79
2022-10-25T01:42:02.839Z,10.71
2022-10-25T01:44:04.286Z,10.77
2022-10-25T01:46:06.107Z,10.76
2022-10-25T01:48:08.003Z,10.81
2022-10-25T01:50:09.662Z,10.9
2022-10-25T01:52:11.145Z,10.84
2022-10-25T01:54:12.818Z,10.91
2022-10-25T01:56:14.589Z,10.85
2022-10-25T01:58:15.713Z,10.83
2022-10-25T02:00:17.054Z,10.87
2022-10-25T02:02:18.226Z,10.92
2022-10-25T02:04:19.619Z,10.9
2022-10-25T02:06:21.405Z,10.87
2022-10-25T02:08:22.434Z,10.86
2022-10-25T02:10:23.999Z,10.91
2022-10-25T02:12:25.554Z,11.07
2022-10-25T02:14:26.890Z,11.07
2022-10-25T02:16:28.602Z,10.95
2022-10-25T02:19:13.904Z,10.95
2022-10-25T02:21:15.512Z,11.04
2022-10-25T02:23:17.192Z,11.27
2022-10-25T02:25:19.044Z,11.31
2022-10-25T02:27:20.808Z,11.35
2022-10-25T02:29:21.860Z,11.36
2022-10-25T02:31:23.774Z,11.33
2022-10-25T02:33:24.705Z,11.34
2022-10-25T02:35:26.298Z,11.3
2022-10-25T02:37:27.183Z,11.13
2022-10-25T02:41:29.592Z,10.94
2022-10-25T02:47:33.154Z,11.11
2022-10-25T02:49:34.365Z,11.21
2022-10-25T02:51:35.827Z,11.37
2022-10-25T02:53:37.266Z,11.44
2022-10-25T02:55:38.448Z,11.37
2022-10-25T02:57:39.449Z,11.35
2022-10-25T02:59:40.421Z,11.34
2022-10-25T03:01:41.598Z,11.25
2022-10-25T03:03:42.565Z,11.05
2022-10-25T03:05:44.088Z,10.91
2022-10-25T03:07:45.413Z,10.84
2022-10-25T03:09:46.905Z,10.79
2022-10-25T03:11:48.697Z,10.78
2022-10-25T03:13:50.284Z,10.79
2022-10-25T03:15:51.758Z,10.84
2022-10-25T03:17:52.672Z,10.81
2022-10-25T03:19:54.158Z,10.77
2022-10-25T03:21:55.670Z,10.93
2022-10-25T03:23:56.717Z,11.05
2022-10-25T03:25:57.895Z,11.05
2022-10-25T03:27:59.407Z,10.9
2022-10-25T03:30:00.729Z,10.63
2022-10-25T03:32:02.158Z,10.67
2022-10-25T03:34:03.643Z,10.62
2022-10-25T03:36:05.499Z,10.56
2022-10-25T03:38:06.636Z,10.64
2022-10-25T03:40:08.386Z,10.51
2022-10-25T03:42:09.884Z,10.44
2022-10-25T03:44:10.898Z,10.48
2022-10-25T03:46:11.957Z,10.66
2022-10-25T03:48:13.514Z,10.62
2022-10-25T03:50:15.121Z,10.58
2022-10-25T03:52:16.400Z,10.53
2022-10-25T03:54:18.005Z,10.4
2022-10-25T03:56:19.121Z,10.5
2022-10-25T03:58:20.374Z,10.41
2022-10-25T04:00:21.906Z,10.54
2022-10-25T04:02:23.807Z,10.58
2022-10-25T04:04:25.649Z,10.76
2022-10-25T04:06:27.275Z,10.82
2022-10-25T04:08:28.827Z,10.94
2022-10-25T04:10:30.662Z,11.06
2022-10-25T04:12:31.909Z,11.09
2022-10-25T04:14:33.216Z,11.2
2022-10-25T04:16:34.576Z,11.22
2022-10-25T04:18:36.496Z,11.19
2022-10-25T04:20:37.923Z,11.21
2022-10-25T04:22:39.684Z,11.13
2022-10-25T04:24:41.481Z,11.12
2022-10-25T04:26:42.443Z,11.05
2022-10-25T04:28:44.224Z,11.05
2022-10-25T04:30:46.014Z,10.98
2022-10-25T04:32:47.144Z,11.01
2022-10-25T04:34:48.094Z,10.99
2022-10-25T04:36:49.664Z,11.02
2022-10-25T04:38:51.107Z,11.08
2022-10-25T04:40:52.442Z,11.1
2022-10-25T04:42:53.506Z,11.09
2022-10-25T04:44:54.652Z,11.14
2022-10-25T04:46:56.268Z,11.27
2022-10-25T04:48:57.460Z,11.35
2022-10-25T04:50:58.489Z,11.36
2022-10-25T04:52:59.559Z,11.44
2022-10-25T04:55:00.445Z,11.43
2022-10-25T04:57:02.316Z,11.39
2022-10-25T04:59:03.529Z,11.35
2022-10-25T05:01:04.969Z,11.34
2022-10-25T05:03:09.436Z,11.36
2022-10-25T05:05:07.256Z,11.4
2022-10-25T05:07:08.450Z,11.46
2022-10-25T05:09:09.424Z,11.4
2022-10-25T05:11:10.941Z,11.35
2022-10-25T05:13:12.212Z,11.35
2022-10-25T05:15:13.256Z,11.28
2022-10-25T05:17:14.757Z,11.17
2022-10-25T05:19:15.809Z,11.14
2022-10-25T05:21:17.681Z,11.09
2022-10-25T05:23:18.720Z,10.96
2022-10-25T05:25:20.473Z,10.75
2022-10-25T05:27:22.367Z,10.57
2022-10-25T05:29:23.840Z,10.51
2022-10-25T05:31:25.337Z,10.23
2022-10-25T05:33:26.420Z,10.26
2022-10-25T05:35:27.356Z,10.31
2022-10-25T05:37:28.919Z,10.26
2022-10-25T05:39:30.606Z,10.36
2022-10-25T05:41:34.536Z,10.44
2022-10-25T05:43:33.518Z,10.59
2022-10-25T05:45:34.729Z,10.71
2022-10-25T05:47:35.733Z,10.75
2022-10-25T05:49:36.668Z,10.82
2022-10-25T05:51:37.936Z,10.82
2022-10-25T05:53:39.372Z,10.83
2022-10-25T05:55:40.594Z,10.87
2022-10-25T05:57:42.467Z,10.9
2022-10-25T05:59:44.208Z,10.84
2022-10-25T06:01:46.086Z,10.79
2022-10-25T06:03:47.313Z,10.95
2022-10-25T06:05:49.110Z,10.96
2022-10-25T06:07:50.566Z,11.06
2022-10-25T06:09:52.376Z,10.98
2022-10-25T06:11:53.644Z,10.78
2022-10-25T06:13:54.751Z,10.55
2022-10-25T06:16:04.110Z,10.48
2022-10-25T06:19:58.386Z,10.58
2022-10-25T06:21:59.633Z,10.79
2022-10-25T06:24:00.822Z,10.61
2022-10-25T06:26:02.076Z,10.49
2022-10-25T06:28:03.788Z,10.4
2022-10-25T06:30:05.262Z,10.46
2022-10-25T06:32:06.699Z,10.44
2022-10-25T06:34:08.185Z,10.57
2022-10-25T06:36:09.387Z,10.6
2022-10-25T06:38:11.009Z,10.63
2022-10-25T06:40:12.678Z,10.7
2022-10-25T06:42:13.912Z,10.61
2022-10-25T06:44:15.140Z,10.58
2022-10-25T06:46:16.874Z,10.56
2022-10-25T06:48:18.249Z,10.52
2022-10-25T06:50:19.575Z,10.53
2022-10-25T06:52:21.127Z,10.55
2022-10-25T06:54:22.286Z,10.55
2022-10-25T06:56:23.721Z,10.52
2022-10-25T06:58:25.201Z,10.58
2022-10-25T07:00:26.785Z,10.61
2022-10-25T07:02:28.666Z,10.64
2022-10-25T07:04:29.440Z,10.64
2022-10-25T07:08:32.873Z,10.75
2022-10-25T07:10:34.119Z,10.91
2022-10-25T07:12:35.679Z,11.23
2022-10-25T07:14:36.971Z,11.4
2022-10-25T07:16:38.768Z,11.77
2022-10-25T07:18:40.682Z,12.17
2022-10-25T07:20:41.859Z,12.39
2022-10-25T07:22:42.965Z,12.85
2022-10-25T07:24:44.759Z,12.7
2022-10-25T07:26:45.981Z,12.64
2022-10-25T07:28:47.228Z,12.81
2022-10-25T07:30:48.228Z,12.77
2022-10-25T07:32:49.836Z,13.11
2022-10-25T07:34:50.781Z,13.31
2022-10-25T07:36:51.598Z,13.36
2022-10-25T07:38:52.651Z,13.36
2022-10-25T07:40:54.471Z,13.52
2022-10-25T07:42:55.862Z,13.41
2022-10-25T07:44:56.909Z,13.71
2022-10-25T07:46:58.553Z,13.72
2022-10-25T07:48:59.395Z,13.73
2022-10-25T07:51:00.598Z,13.72
2022-10-25T07:53:02.305Z,13.73
2022-10-25T07:55:12.019Z,13.83
2022-10-25T07:57:05.369Z,14
2022-10-25T07:59:07.075Z,14.27
2022-10-25T08:01:08.150Z,14.13
2022-10-25T08:03:09.072Z,14.13
2022-10-25T08:05:10.645Z,14.13
2022-10-25T08:07:12.459Z,13.89
2022-10-25T08:09:14.681Z,13.75
2022-10-25T08:11:14.687Z,13.73
2022-10-25T08:13:15.736Z,13.77
2022-10-25T08:15:17.235Z,13.72
2022-10-25T08:17:18.941Z,14.01
2022-10-25T08:19:20.436Z,13.92
2022-10-25T08:21:22.222Z,13.95
2022-10-25T08:23:23.333Z,14.01
2022-10-25T08:25:26.201Z,14.14
2022-10-25T08:27:26.851Z,14.1
2022-10-25T08:29:28.341Z,14.01
2022-10-25T08:31:30.172Z,13.99
2022-10-25T08:33:31.554Z,14
2022-10-25T08:35:33.272Z,13.97
2022-10-25T08:37:34.899Z,14.01
2022-10-25T08:39:36.441Z,14.07
2022-10-25T08:43:38.886Z,14.08
2022-10-25T08:45:39.962Z,14.21
2022-10-25T08:47:41.135Z,14.22
2022-10-25T08:49:42.054Z,14.17
2022-10-25T08:51:43.576Z,14.24
2022-10-25T08:53:44.959Z,14.28
2022-10-25T08:55:59.064Z,14.11
2022-10-25T08:57:47.956Z,14.26
2022-10-25T08:59:49.110Z,14.41
2022-10-25T09:01:50.847Z,14.78
2022-10-25T09:03:52.249Z,14.59
2022-10-25T09:04:35.933Z,14.52
2022-10-25T09:06:37.430Z,14.59
2022-10-25T09:08:38.739Z,14.75
2022-10-25T09:10:40.444Z,15.05
2022-10-25T09:12:41.995Z,14.8
2022-10-25T09:14:43.010Z,15.03
2022-10-25T09:16:44.046Z,14.82
2022-10-25T09:18:44.988Z,15.15
2022-10-25T09:20:46.253Z,15.44
2022-10-25T09:22:47.328Z,15.34
2022-10-25T09:24:49.578Z,15.48
2022-10-25T09:26:50.558Z,15.87
2022-10-25T09:28:52.040Z,15.9
2022-10-25T09:30:53.018Z,15.64
2022-10-25T09:32:53.889Z,15.74
2022-10-25T09:34:55.500Z,15.77
2022-10-25T09:36:56.725Z,16.09
2022-10-25T09:38:58.171Z,16.33
2022-10-25T09:40:59.756Z,15.87
2022-10-25T09:43:00.796Z,15.74
2022-10-25T09:45:01.910Z,15.69
2022-10-25T09:47:03.499Z,15.57
2022-10-25T09:49:04.711Z,15.4
2022-10-25T09:51:06.422Z,15.56
2022-10-25T09:53:07.386Z,15.86
2022-10-25T09:55:08.857Z,15.97
2022-10-25T09:57:10.017Z,15.98
2022-10-25T09:59:11.011Z,16.32
2022-10-25T10:01:11.910Z,15.88
2022-10-25T10:03:13.356Z,15.96
2022-10-25T10:05:14.514Z,15.95
2022-10-25T10:07:15.917Z,15.71
2022-10-25T10:09:17.366Z,15.73
2022-10-25T10:11:19.101Z,15.57
2022-10-25T10:13:20.060Z,15.45
2022-10-25T10:15:20.990Z,15.78
2022-10-25T10:19:23.275Z,15.52
2022-10-25T10:21:24.681Z,15.58
2022-10-25T10:23:25.663Z,15.69
2022-10-25T10:25:26.642Z,15.8
2022-10-25T10:27:28.246Z,15.78
2022-10-25T10:29:30.300Z,15.82
2022-10-25T10:31:31.886Z,15.97
2022-10-25T10:33:33.445Z,16.03
2022-10-25T10:35:34.392Z,15.88
2022-10-25T10:37:36.094Z,15.97
2022-10-25T10:39:37.602Z,15.93
2022-10-25T10:41:39.121Z,15.8
2022-10-25T10:43:40.455Z,15.8
2022-10-25T10:45:41.666Z,15.77
2022-10-25T10:47:43.074Z,16.05
2022-10-25T10:49:44.019Z,15.94
2022-10-25T10:51:45.411Z,16.04
2022-10-25T10:53:45.877Z,15.9
2022-10-25T10:55:47.217Z,15.84
2022-10-25T10:57:48.973Z,15.85
2022-10-25T10:59:50.595Z,16.04
2022-10-25T11:01:52.413Z,16.02
2022-10-25T11:04:00.301Z,16.09
2022-10-25T11:05:55.355Z,16.24
2022-10-25T11:07:56.841Z,16.37
2022-10-25T11:09:58.481Z,16.59
2022-10-25T11:11:59.983Z,16.4
2022-10-25T11:14:01.734Z,16.46
2022-10-25T11:16:03.463Z,16.57
2022-10-25T11:18:05.052Z,16.64
2022-10-25T11:20:06.568Z,16.9
2022-10-25T11:22:08.233Z,17.45
2022-10-25T11:24:09.337Z,17.68
2022-10-25T11:26:10.316Z,17.85
2022-10-25T11:28:11.628Z,17.66
2022-10-25T11:30:12.688Z,17.45
2022-10-25T11:32:13.632Z,17.22
2022-10-25T11:34:15.235Z,17.35
2022-10-25T11:36:16.598Z,17.05
2022-10-25T11:38:18.156Z,17.02
2022-10-25T11:40:18.987Z,16.77
2022-10-25T11:42:20.792Z,16.88
2022-10-25T11:44:22.267Z,16.63
2022-10-25T11:46:23.490Z,16.87
2022-10-25T11:48:25.091Z,16.82
2022-10-25T11:50:26.791Z,16.66
2022-10-25T11:52:27.788Z,16.79
2022-10-25T11:54:29.385Z,17.02
2022-10-25T11:56:30.813Z,17
2022-10-25T11:58:33.445Z,17.06
2022-10-25T12:00:33.328Z,17.05
2022-10-25T12:02:34.940Z,17.38
2022-10-25T12:04:37.947Z,17.3
2022-10-25T12:06:38.320Z,17.29
2022-10-25T12:08:39.966Z,17.18
2022-10-25T12:10:41.690Z,16.89
2022-10-25T12:12:43.798Z,17.13
2022-10-25T12:14:45.060Z,17.1
2022-10-25T12:16:46.866Z,17.18
2022-10-25T12:18:48.451Z,17.06
2022-10-25T12:20:50.173Z,17.31
2022-10-25T12:22:51.170Z,17.48
2022-10-25T12:24:52.477Z,17.74
2022-10-25T12:26:53.551Z,17.83
2022-10-25T12:28:54.484Z,17.71
2022-10-25T12:30:56.267Z,17.93
2022-10-25T12:32:57.355Z,17.8
2022-10-25T12:34:59.415Z,18.16
2022-10-25T12:37:00.524Z,17.99
2022-10-25T12:39:02.070Z,17.98
2022-10-25T12:41:03.711Z,18.22
2022-10-25T12:43:05.342Z,18.62
2022-10-25T12:45:07.014Z,18.14
2022-10-25T12:47:08.795Z,18.28
2022-10-25T12:49:10.526Z,17.76
2022-10-25T12:51:12.955Z,17.71
2022-10-25T12:53:12.942Z,17.79
2022-10-25T12:55:13.792Z,17.54
2022-10-25T12:57:14.793Z,17.4
2022-10-25T12:59:16.335Z,17.48
2022-10-25T13:01:18.414Z,17.78
2022-10-25T13:03:19.599Z,18.12
2022-10-25T13:05:20.810Z,18.1
2022-10-25T13:07:22.004Z,18.33
2022-10-25T13:09:27.068Z,18.05
2022-10-25T13:11:25.524Z,17.49
2022-10-25T13:13:27.109Z,17.54
2022-10-25T13:15:28.572Z,17.38
2022-10-25T13:17:29.390Z,17.18
2022-10-25T13:19:49.646Z,17.14
2022-10-25T13:21:31.913Z,17.21
2022-10-25T13:25:34.112Z,17.46
2022-10-25T13:27:35.992Z,17.72
2022-10-25T13:29:37.597Z,18.08
2022-10-25T13:31:38.958Z,18.28
2022-10-25T13:33:39.794Z,18.38
2022-10-25T13:35:41.492Z,18.08
2022-10-25T13:37:43.216Z,18.1
2022-10-25T13:39:44.104Z,18.2
2022-10-25T13:41:45.950Z,18.59
2022-10-25T13:43:47.248Z,18.59
2022-10-25T13:45:48.273Z,18.29
2022-10-25T13:47:49.665Z,18.16
2022-10-25T13:49:52.062Z,18.18
2022-10-25T13:51:53.868Z,18.27
2022-10-25T13:53:55.309Z,18.4
2022-10-25T13:55:56.196Z,17.99
2022-10-25T13:57:57.724Z,18.18
2022-10-25T13:59:58.603Z,18.44
2022-10-25T14:02:00.346Z,18.32
2022-10-25T14:04:01.626Z,18.23
2022-10-25T14:06:03.073Z,18.07
2022-10-25T14:08:04.500Z,18.05
2022-10-25T14:10:05.677Z,18.09
2022-10-25T14:12:08.939Z,17.87
2022-10-25T14:14:08.320Z,18.07
2022-10-25T14:16:09.865Z,18.4
2022-10-25T14:18:11.233Z,18.77
2022-10-25T14:22:14.302Z,18.74
2022-10-25T14:24:16.096Z,19.1
2022-10-25T14:26:17.719Z,18.6
2022-10-25T14:28:19.229Z,18.44
2022-10-25T14:30:20.470Z,18.8
2022-10-25T14:32:22.104Z,18.81
2022-10-25T14:34:23.834Z,18.43
2022-10-25T14:36:24.949Z,18.55
2022-10-25T14:38:26.476Z,18.6
2022-10-25T14:40:28.135Z,18.78
2022-10-25T14:42:29.687Z,18.45
2022-10-25T14:44:30.796Z,18.44
2022-10-25T14:46:31.792Z,18.02
2022-10-25T14:48:33.035Z,18.04
2022-10-25T14:50:34.271Z,18.02
2022-10-25T14:52:35.388Z,18.06
2022-10-25T14:54:36.471Z,17.82
2022-10-25T14:56:37.574Z,17.94
2022-10-25T14:58:38.666Z,17.92
2022-10-25T15:00:39.982Z,17.76
2022-10-25T15:02:41.271Z,17.94
2022-10-25T15:04:42.725Z,17.89
2022-10-25T15:06:44.228Z,17.73
2022-10-25T15:08:47.900Z,17.79
2022-10-25T15:10:46.353Z,17.56
2022-10-25T15:12:47.812Z,17.74
2022-10-25T15:14:49.305Z,17.67
2022-10-25T15:16:50.620Z,17.57
2022-10-25T15:18:51.690Z,17.65
2022-10-25T15:20:54.480Z,17.54
2022-10-25T15:22:53.949Z,17.52
2022-10-25T15:24:55.357Z,17.62
2022-10-25T15:26:57.094Z,17.42
2022-10-25T15:28:58.284Z,17.3
2022-10-25T15:30:59.548Z,17.28
2022-10-25T15:33:01.247Z,17.35
2022-10-25T15:35:02.238Z,17.43
2022-10-25T15:37:03.084Z,17.57
2022-10-25T15:39:10.318Z,17.47
2022-10-25T15:41:05.647Z,17.28
2022-10-25T15:43:07.388Z,17.03
2022-10-25T15:45:08.775Z,16.77
2022-10-25T15:47:09.759Z,16.45
2022-10-25T15:49:11.099Z,15.95
2022-10-25T15:51:12.131Z,15.67
2022-10-25T15:53:57.263Z,15.38
2022-10-25T15:55:58.319Z,15.13
2022-10-25T15:57:59.729Z,14.9
2022-10-25T16:00:01.324Z,14.65
2022-10-25T16:02:02.947Z,14.48
2022-10-25T16:04:04.230Z,14.35
2022-10-25T16:06:06.079Z,14.23
2022-10-25T16:08:07.704Z,14.18
2022-10-25T16:10:09.377Z,14.06
2022-10-25T16:12:10.314Z,13.95
2022-10-25T16:14:11.254Z,13.91
2022-10-25T16:16:35.132Z,13.83
2022-10-25T16:18:14.151Z,13.73
2022-10-25T16:20:15.443Z,13.52
2022-10-25T16:22:16.426Z,13.44
2022-10-25T16:24:18.255Z,13.44
2022-10-25T16:26:19.975Z,13.46
2022-10-25T16:28:21.435Z,13.47
2022-10-25T16:30:22.991Z,13.69
2022-10-25T16:32:24.670Z,13.75
2022-10-25T16:34:26.474Z,13.72
2022-10-25T16:36:27.837Z,13.76
2022-10-25T16:38:29.072Z,13.75
2022-10-25T16:40:30.621Z,13.62
2022-10-25T16:42:31.807Z,13.47
2022-10-25T16:44:33.319Z,13.31
2022-10-25T16:46:35.160Z,13.24
2022-10-25T16:48:36.695Z,13.12
2022-10-25T16:50:38.305Z,13.05
2022-10-25T16:52:39.526Z,12.98
2022-10-25T16:54:40.980Z,12.78
2022-10-25T16:56:42.689Z,12.51
2022-10-25T16:58:43.821Z,12.47
2022-10-25T17:00:45.409Z,12.42
2022-10-25T17:02:46.842Z,12.41
2022-10-25T17:04:48.101Z,12.39
2022-10-25T17:06:49.224Z,12.42
2022-10-25T17:08:50.478Z,12.37
2022-10-25T17:10:51.730Z,12.11
2022-10-25T17:12:53.516Z,11.95
2022-10-25T17:14:55.274Z,11.91
2022-10-25T17:16:59.500Z,11.89
2022-10-25T17:18:58.873Z,11.85
2022-10-25T17:21:00.648Z,11.8
2022-10-25T17:23:01.620Z,11.77
2022-10-25T17:25:02.975Z,11.59
2022-10-25T17:29:04.952Z,11.45
2022-10-25T17:31:06.011Z,11.36
2022-10-25T17:33:06.995Z,11.32
2022-10-25T17:35:08.182Z,11.39
2022-10-25T17:37:09.532Z,11.37
2022-10-25T17:39:11.224Z,11.31
2022-10-25T17:41:13.044Z,11.33
2022-10-25T17:43:14.391Z,11.19
2022-10-25T17:45:15.974Z,11.1
2022-10-25T17:47:17.483Z,10.99
2022-10-25T17:49:18.799Z,10.95
2022-10-25T17:51:20.534Z,11.01
2022-10-25T17:53:21.513Z,11.01
2022-10-25T17:55:23.325Z,10.89
2022-10-25T17:57:25.198Z,10.8
2022-10-25T17:59:26.627Z,10.83
2022-10-25T18:01:27.669Z,10.8
2022-10-25T18:03:29.428Z,10.8
2022-10-25T18:05:30.918Z,10.74
2022-10-25T18:07:34.068Z,10.69
2022-10-25T18:09:34.030Z,10.62
2022-10-25T18:11:35.792Z,10.59
2022-10-25T18:13:36.949Z,10.52
2022-10-25T18:15:38.196Z,10.36
2022-10-25T18:17:39.974Z,10.43
2022-10-25T18:19:41.923Z,10.49
2022-10-25T18:21:43.028Z,10.31
2022-10-25T18:23:44.880Z,10.28
2022-10-25T18:25:46.300Z,10.19
2022-10-25T18:27:48.050Z,10.27
2022-10-25T18:29:49.525Z,10.23
2022-10-25T18:31:51.100Z,10.24
2022-10-25T18:33:52.160Z,10.21
2022-10-25T18:35:53.681Z,10.21
2022-10-25T18:37:55.556Z,10.28
2022-10-25T18:39:57.453Z,10.4
2022-10-25T18:41:58.505Z,10.33
2022-10-25T18:44:00.003Z,10.12
2022-10-25T18:46:00.944Z,10.06
2022-10-25T18:48:02.131Z,10.06
2022-10-25T18:50:03.264Z,10.07
2022-10-25T18:52:04.748Z,9.99
2022-10-25T18:54:06.572Z,9.89
2022-10-25T18:56:07.662Z,9.93
2022-10-25T18:58:08.806Z,9.84
2022-10-25T19:00:10.062Z,9.76
2022-10-25T19:02:11.536Z,9.72
2022-10-25T19:04:13.157Z,9.75
2022-10-25T19:06:14.538Z,9.68
2022-10-25T19:08:16.013Z,9.74
2022-10-25T19:10:17.017Z,9.78
2022-10-25T19:12:18.522Z,9.78
2022-10-25T19:14:20.189Z,9.74
2022-10-25T19:16:21.380Z,9.62
2022-10-25T19:18:22.496Z,9.5
2022-10-25T19:20:23.525Z,9.51
2022-10-25T19:22:25.438Z,9.5
2022-10-25T19:24:27.206Z,9.51
2022-10-25T19:26:28.830Z,9.79
2022-10-25T19:28:30.500Z,9.76
2022-10-25T19:30:34.228Z,9.68
2022-10-25T19:32:33.980Z,9.66
2022-10-25T19:34:35.343Z,9.59
2022-10-25T19:36:37.116Z,9.42
2022-10-25T19:38:38.352Z,9.27
2022-10-25T19:40:40.092Z,9.3
2022-10-25T19:42:41.299Z,9.3
2022-10-25T19:44:42.958Z,9.18
2022-10-25T19:46:44.337Z,9.2
2022-10-25T19:48:45.959Z,9.22
2022-10-25T19:50:47.234Z,9.22
2022-10-25T19:52:48.951Z,9.21
2022-10-25T19:54:50.086Z,9.2
2022-10-25T19:56:51.786Z,9.28
2022-10-25T19:58:53.213Z,9.33
2022-10-25T20:00:54.811Z,9.45
2022-10-25T20:02:56.095Z,9.41
2022-10-25T20:04:57.793Z,9.3
2022-10-25T20:06:58.835Z,9.29
2022-10-25T20:09:00.035Z,9.21
2022-10-25T20:11:01.364Z,9.16
2022-10-25T20:15:04.176Z,9.2
2022-10-25T20:17:05.371Z,9.15
2022-10-25T20:19:06.466Z,9.19
2022-10-25T20:21:08.348Z,9.17
2022-10-25T20:23:10.237Z,9.23
2022-10-25T20:25:11.466Z,9.1
2022-10-25T20:27:12.758Z,9.05
2022-10-25T20:29:21.942Z,9.05
2022-10-25T20:31:15.146Z,9.01
2022-10-25T20:33:16.817Z,8.99
2022-10-25T20:35:17.810Z,8.96
2022-10-25T20:37:19.139Z,8.95
2022-10-25T20:39:20.926Z,8.88
2022-10-25T20:41:22.508Z,8.86
2022-10-25T20:43:24.414Z,8.82
2022-10-25T20:45:25.783Z,8.81
2022-10-25T20:47:26.864Z,8.8
2022-10-25T20:49:28.090Z,8.82
2022-10-25T20:51:29.876Z,8.78
2022-10-25T20:53:31.474Z,8.78
2022-10-25T20:55:33.322Z,8.72
2022-10-25T20:57:34.825Z,8.75
2022-10-25T20:59:36.359Z,8.7
2022-10-25T21:01:38.057Z,8.64
2022-10-25T21:03:39.666Z,8.57
2022-10-25T21:05:41.105Z,8.53
2022-10-25T21:07:42.438Z,8.58
2022-10-25T21:09:47.096Z,8.59
2022-10-25T21:13:46.256Z,8.67
2022-10-25T21:15:47.555Z,8.61
2022-10-25T21:17:48.990Z,8.7
2022-10-25T21:19:50.373Z,8.64
2022-10-25T21:21:52.283Z,8.54
2022-10-25T21:23:53.921Z,8.48
2022-10-25T21:25:55.494Z,8.44
2022-10-25T21:27:56.970Z,8.5
2022-10-25T21:29:58.079Z,8.58
2022-10-25T21:31:59.133Z,8.59
2022-10-25T21:34:00.483Z,8.62
2022-10-25T21:36:02.201Z,8.65
2022-10-25T21:38:03.518Z,8.57
2022-10-25T21:40:05.270Z,8.5
2022-10-25T21:42:06.484Z,8.5
2022-10-25T21:46:08.805Z,8.4
2022-10-25T21:48:10.377Z,8.41
2022-10-25T21:50:11.451Z,8.4
2022-10-25T21:52:12.538Z,8.46
2022-10-25T21:54:14.051Z,8.53
2022-10-25T21:56:15.349Z,8.51
2022-10-25T21:58:16.572Z,8.54
2022-10-25T22:00:17.664Z,8.52
2022-10-25T22:02:19.287Z,8.44
2022-10-25T22:04:20.848Z,8.4
2022-10-25T22:06:21.895Z,8.37
2022-10-25T22:08:23.669Z,8.36
2022-10-25T22:10:25.212Z,8.37
2022-10-25T22:12:26.336Z,8.44
2022-10-25T22:14:27.377Z,8.45
2022-10-25T22:16:29.307Z,8.44
2022-10-25T22:18:31.162Z,8.45
2022-10-25T22:20:32.780Z,8.41
2022-10-25T22:22:34.007Z,8.33
2022-10-25T22:24:35.450Z,8.32
2022-10-25T22:28:39.995Z,8.27
2022-10-25T22:30:40.665Z,8.28
2022-10-25T22:32:42.585Z,8.25
2022-10-25T22:34:44.253Z,8.25
2022-10-25T22:36:45.844Z,8.25
2022-10-25T22:39:30.621Z,8.3
2022-10-25T22:41:32.535Z,8.33
2022-10-25T22:43:33.783Z,8.35
2022-10-25T22:45:35.453Z,8.38
2022-10-25T22:47:36.467Z,8.35
2022-10-25T22:49:38.235Z,8.35
2022-10-25T22:51:40.035Z,8.35
2022-10-25T22:53:41.737Z,8.32
2022-10-25T22:55:42.803Z,8.3
2022-10-25T22:57:43.801Z,8.28
2022-10-25T22:59:45.796Z,8.21
2022-10-25T23:01:47.405Z,8.23
2022-10-25T23:03:48.930Z,8.24
2022-10-25T23:05:50.572Z,8.29
2022-10-25T23:07:51.856Z,8.28
2022-10-25T23:09:53.229Z,8.26
2022-10-25T23:11:54.699Z,8.26
2022-10-25T23:13:56.320Z,8.3
2022-10-25T23:15:57.594Z,8.33
2022-10-25T23:17:58.896Z,8.34
2022-10-25T23:20:00.237Z,8.37
2022-10-25T23:22:01.787Z,8.37
2022-10-25T23:24:03.114Z,8.4
2022-10-25T23:26:04.563Z,8.42
2022-10-25T23:28:06.351Z,8.41
2022-10-25T23:30:09.810Z,8.39
2022-10-25T23:32:17.511Z,8.35
2022-10-25T23:34:11.038Z,8.45
2022-10-25T23:36:12.120Z,8.42
2022-10-25T23:38:13.310Z,8.38
2022-10-25T23:40:14.703Z,8.43
2022-10-25T23:42:16.400Z,8.52
2022-10-25T23:44:18.383Z,8.56
2022-10-25T23:46:19.848Z,8.63
2022-10-25T23:48:21.190Z,8.66
2022-10-25T23:50:22.893Z,8.7
2022-10-25T23:52:24.286Z,8.71
2022-10-25T23:54:25.815Z,8.71
2022-10-25T23:56:27.580Z,8.72
2022-10-25T23:58:28.884Z,8.76
